Aviation Digital Data Service (ADDS)

Output produced by METARs form (1525 UTC 23 January 2019)
found at http://www.aviationweather.gov/metar/data/
 
Forecast for: ZJHK (HAIKOU , CN)
Text: TAF ZJHK 230909Z 2312/2412 06004MPS 5000 BR SCT030 TX23/2406Z TN14/2321Z
Forecast period: 1200 UTC 23 January 2019 to 1200 UTC 24 January 2019
Forecast type: FROM: standard forecast or significant change
Winds: from the ENE (60 degrees) at 9 MPH (8 knots; 4.1 m/s)
Visibility: 3 miles (5 km)
Ceiling: at least 12,000 feet AGL
Clouds: scattered clouds at 3000 feet AGL
Weather: BR  (mist)